createdAt,value
2018-03-14T00:00:34.221Z,30.6
2018-03-14T00:01:23.179Z,33.4
2018-03-14T00:02:13.814Z,35.1
2018-03-14T00:03:03.689Z,33.6
2018-03-14T00:03:55.646Z,32.9
2018-03-14T00:04:44.699Z,32.6
2018-03-14T00:05:34.481Z,32.6
2018-03-14T00:06:24.523Z,32.6
2018-03-14T00:07:18.543Z,32.7
2018-03-14T00:08:04.053Z,32.7
2018-03-14T00:08:55.328Z,32.8
2018-03-14T00:09:44.672Z,32.7
2018-03-14T00:10:34.039Z,32.6
2018-03-14T00:11:23.584Z,32.6
2018-03-14T00:12:14.130Z,32.4
2018-03-14T00:13:07.482Z,32.3
2018-03-14T00:13:55.152Z,32.2
2018-03-14T00:14:44.806Z,32.1
2018-03-14T00:15:33.909Z,31.9
2018-03-14T00:16:28.360Z,31.8
2018-03-14T00:17:15.008Z,31.6
2018-03-14T00:18:04.751Z,31.4
2018-03-14T00:18:54.820Z,31.3
2018-03-14T00:19:45.710Z,31.1
2018-03-14T00:20:35.952Z,30.8
2018-03-14T00:21:25.340Z,28.4
2018-03-14T00:22:16.213Z,27.6
2018-03-14T00:23:05.857Z,27.3
2018-03-14T00:23:55.824Z,27.7
2018-03-14T00:24:45.160Z,28.9
2018-03-14T00:25:39.370Z,31.1
2018-03-14T00:26:25.443Z,34.2
2018-03-14T00:27:16.661Z,34.6
2018-03-14T00:28:05.887Z,33.3
2018-03-14T00:28:55.755Z,32.7
2018-03-14T00:29:46.727Z,32.6
2018-03-14T00:30:36.716Z,32.6
2018-03-14T00:31:24.398Z,32.6
2018-03-14T00:32:17.574Z,32.7
2018-03-14T00:33:06.188Z,32.8
2018-03-14T00:33:56.742Z,32.8
2018-03-14T00:34:48.165Z,32.7
2018-03-14T00:35:36.990Z,32.6
2018-03-14T00:36:27.454Z,32.6
2018-03-14T00:37:15.460Z,32.4
2018-03-14T00:38:06.924Z,32.3
2018-03-14T00:38:56.547Z,32.2
2018-03-14T00:39:46.867Z,32.1
2018-03-14T00:40:39.033Z,31.9
2018-03-14T00:41:28.805Z,31.8
2018-03-14T00:42:17.695Z,31.6
2018-03-14T00:43:08.029Z,31.4
2018-03-14T00:44:02.685Z,31.3
2018-03-14T00:44:49.047Z,31.1
2018-03-14T00:45:38.519Z,30.3
2018-03-14T00:46:27.879Z,28.2
2018-03-14T00:47:20.404Z,27.6
2018-03-14T00:48:08.639Z,27.4
2018-03-14T00:48:59.551Z,28
2018-03-14T00:49:50.314Z,29.5
2018-03-14T00:50:38.789Z,32
2018-03-14T00:51:29.473Z,34.6
2018-03-14T00:52:20.063Z,34.1
2018-03-14T00:53:14.432Z,33.1
2018-03-14T00:54:00.508Z,32.6
2018-03-14T00:54:50.054Z,32.6
2018-03-14T00:55:40.295Z,32.6
2018-03-14T00:56:32.834Z,32.6
2018-03-14T00:57:20.480Z,32.7
2018-03-14T00:58:08.579Z,32.7
2018-03-14T00:58:58.361Z,32.7
2018-03-14T00:59:49.822Z,32.7
2018-03-14T01:00:37.960Z,32.6
2018-03-14T01:01:29.225Z,32.5
2018-03-14T01:02:21.528Z,32.4
2018-03-14T01:03:09.483Z,32.3
2018-03-14T01:03:59.801Z,32.1
2018-03-14T01:04:47.647Z,32
2018-03-14T01:05:38.765Z,31.8
2018-03-14T01:06:29.802Z,31.6
2018-03-14T01:07:18.377Z,31.5
2018-03-14T01:08:08.293Z,31.3
2018-03-14T01:08:58.344Z,31.2
2018-03-14T01:09:48.420Z,31.1
2018-03-14T01:10:39.758Z,29.6
2018-03-14T01:11:31.756Z,27.9
2018-03-14T01:12:18.318Z,27.4
2018-03-14T01:13:08.043Z,27.6
2018-03-14T01:13:58.812Z,28.3
2018-03-14T01:14:48.472Z,30.1
2018-03-14T01:15:39.585Z,32.5
2018-03-14T01:16:30.225Z,35.2
2018-03-14T01:17:19.977Z,34.2
2018-03-14T01:18:08.539Z,33.2
2018-03-14T01:19:00.165Z,32.8
2018-03-14T01:19:49.393Z,32.7
2018-03-14T01:20:39.951Z,32.8
2018-03-14T01:21:30.218Z,32.8
2018-03-14T01:22:19.620Z,32.8
2018-03-14T01:23:09.914Z,32.9
2018-03-14T01:24:00.041Z,32.9
2018-03-14T01:24:48.776Z,32.8
2018-03-14T01:25:39.991Z,32.7
2018-03-14T01:26:30.972Z,32.6
2018-03-14T01:27:20.304Z,32.5
2018-03-14T01:28:09.324Z,32.4
2018-03-14T01:28:59.802Z,32.3
2018-03-14T01:29:52.283Z,32.1
2018-03-14T01:30:40.466Z,31.9
2018-03-14T01:31:32.011Z,31.8
2018-03-14T01:32:21.891Z,31.6
2018-03-14T01:33:10.730Z,31.4
2018-03-14T01:34:01.028Z,31.3
2018-03-14T01:34:50.197Z,31.1
2018-03-14T01:35:43.509Z,30.1
2018-03-14T01:36:30.334Z,28.1
2018-03-14T01:37:19.501Z,27.4
2018-03-14T01:38:11.393Z,27.3
2018-03-14T01:39:03.333Z,28.1
2018-03-14T01:39:50.695Z,29.8
2018-03-14T01:40:41.333Z,32.3
2018-03-14T01:41:30.897Z,35
2018-03-14T01:42:21.658Z,34.5
2018-03-14T01:43:10.892Z,33.4
2018-03-14T01:44:01.308Z,32.9
2018-03-14T01:44:52.218Z,32.8
2018-03-14T01:45:41.735Z,32.8
2018-03-14T01:46:32.981Z,32.9
2018-03-14T01:47:22.328Z,32.9
2018-03-14T01:48:15.798Z,32.9
2018-03-14T01:49:01.138Z,32.9
2018-03-14T01:49:52.518Z,32.9
2018-03-14T01:50:41.718Z,32.8
2018-03-14T01:51:31.799Z,32.7
2018-03-14T01:52:22.219Z,32.6
2018-03-14T01:53:11.883Z,32.4
2018-03-14T01:54:03.384Z,32.3
2018-03-14T01:54:52.543Z,32.1
2018-03-14T01:55:41.635Z,31.9
2018-03-14T01:56:32.374Z,31.8
2018-03-14T01:57:23.269Z,31.6
2018-03-14T01:58:12.614Z,31.5
2018-03-14T01:59:03.247Z,31.3
2018-03-14T01:59:52.559Z,31.1
2018-03-14T02:00:43.681Z,30
2018-03-14T02:01:33.244Z,28.1
2018-03-14T02:02:21.845Z,27.5
2018-03-14T02:03:14.974Z,27.4
2018-03-14T02:04:02.859Z,28.2
2018-03-14T02:04:52.170Z,29.9
2018-03-14T02:05:42.390Z,32.4
2018-03-14T02:06:35.367Z,34.9
2018-03-14T02:07:23.531Z,33.8
2018-03-14T02:08:12.769Z,32.9
2018-03-14T02:09:01.866Z,32.6
2018-03-14T02:09:53.414Z,32.5
2018-03-14T02:10:43.589Z,32.5
2018-03-14T02:11:33.648Z,32.6
2018-03-14T02:12:26.561Z,32.6
2018-03-14T02:13:13.636Z,32.7
2018-03-14T02:14:03.218Z,32.7
2018-03-14T02:14:53.589Z,32.6
2018-03-14T02:15:45.755Z,32.5
2018-03-14T02:16:33.976Z,32.4
2018-03-14T02:17:24.025Z,32.3
2018-03-14T02:18:14.729Z,32.2
2018-03-14T02:19:04.137Z,32.1
2018-03-14T02:19:54.540Z,31.9
2018-03-14T02:20:44.253Z,31.8
2018-03-14T02:21:36.632Z,31.6
2018-03-14T02:22:24.075Z,31.4
2018-03-14T02:23:13.191Z,31.3
2018-03-14T02:24:04.448Z,31.1
2018-03-14T02:24:54.591Z,30.5
2018-03-14T02:25:45.841Z,28.1
2018-03-14T02:26:35.558Z,27.4
2018-03-14T02:27:28.318Z,27.4
2018-03-14T02:28:16.206Z,27.9
2018-03-14T02:29:05.350Z,29.3
2018-03-14T02:29:55.738Z,31.7
2018-03-14T02:30:51.835Z,34.6
2018-03-14T02:31:37.527Z,34.2
2018-03-14T02:32:27.010Z,33.3
2018-03-14T02:33:17.364Z,32.8
2018-03-14T02:34:08.775Z,32.7
2018-03-14T02:34:56.805Z,32.7
2018-03-14T02:35:47.859Z,32.8
2018-03-14T02:36:40.664Z,32.9
2018-03-14T02:37:27.667Z,32.9
2018-03-14T02:38:16.657Z,32.9
2018-03-14T02:39:07.803Z,32.8
2018-03-14T02:40:01.862Z,32.8
2018-03-14T02:40:47.637Z,32.6
2018-03-14T02:41:36.577Z,32.5
2018-03-14T02:42:24.977Z,32.4
2018-03-14T02:43:15.496Z,32.3
2018-03-14T02:44:05.062Z,32.1
2018-03-14T02:44:55.492Z,31.9
2018-03-14T02:45:45.337Z,31.8
2018-03-14T02:46:35.039Z,31.6
2018-03-14T02:47:25.672Z,31.4
2018-03-14T02:48:16.027Z,31.3
2018-03-14T02:49:05.192Z,31.1
2018-03-14T02:49:55.807Z,29.7
2018-03-14T02:50:46.497Z,27.9
2018-03-14T02:51:35.892Z,27.3
2018-03-14T02:52:27.182Z,27.4
2018-03-14T02:53:16.706Z,28.3
2018-03-14T02:54:06.226Z,30
2018-03-14T02:54:55.699Z,32.6
2018-03-14T02:55:47.021Z,34.9
2018-03-14T02:56:36.576Z,33.6
2018-03-14T02:57:27.991Z,32.7
2018-03-14T02:58:16.653Z,32.4
2018-03-14T02:59:07.543Z,32.4
2018-03-14T02:59:57.020Z,32.4
2018-03-14T03:00:47.502Z,32.5
2018-03-14T03:01:36.046Z,32.6
2018-03-14T03:02:26.035Z,32.6
2018-03-14T03:03:16.315Z,32.6
2018-03-14T03:04:07.135Z,32.6
2018-03-14T03:04:57.658Z,32.5
2018-03-14T03:05:47.577Z,32.4
2018-03-14T03:06:36.887Z,32.3
2018-03-14T03:07:27.850Z,32.1
2018-03-14T03:08:16.694Z,32
2018-03-14T03:09:07.968Z,31.9
2018-03-14T03:09:57.050Z,31.8
2018-03-14T03:10:47.647Z,31.6
2018-03-14T03:11:37.416Z,31.4
2018-03-14T03:12:27.387Z,31.3
2018-03-14T03:13:17.398Z,31.1
2018-03-14T03:14:08.020Z,30.6
2018-03-14T03:14:57.587Z,28.3
2018-03-14T03:15:48.267Z,27.5
2018-03-14T03:16:37.651Z,27.3
2018-03-14T03:17:29.139Z,27.6
2018-03-14T03:18:17.985Z,28.8
2018-03-14T03:19:07.621Z,31
2018-03-14T03:19:59.049Z,33.8
2018-03-14T03:20:50.020Z,35.1
2018-03-14T03:21:38.792Z,33.6
2018-03-14T03:22:27.792Z,33
2018-03-14T03:23:18.872Z,32.8
2018-03-14T03:24:08.390Z,32.8
2018-03-14T03:24:58.782Z,32.8
2018-03-14T03:25:48.931Z,32.8
2018-03-14T03:26:38.465Z,32.9
2018-03-14T03:27:28.360Z,32.8
2018-03-14T03:28:19.146Z,32.8
2018-03-14T03:29:08.676Z,32.8
2018-03-14T03:29:59.196Z,32.7
2018-03-14T03:30:50.011Z,32.6
2018-03-14T03:31:40.678Z,32.4
2018-03-14T03:32:29.444Z,32.3
2018-03-14T03:33:19.242Z,32.1
2018-03-14T03:34:10.246Z,31.9
2018-03-14T03:34:59.117Z,31.8
2018-03-14T03:35:49.800Z,31.6
2018-03-14T03:36:39.120Z,31.4
2018-03-14T03:37:29.887Z,31.3
2018-03-14T03:38:20.141Z,31.1
2018-03-14T03:39:09.656Z,31
2018-03-14T03:39:59.998Z,28.9
2018-03-14T03:40:49.859Z,27.7
2018-03-14T03:41:40.703Z,27.2
2018-03-14T03:42:31.044Z,27.4
2018-03-14T03:43:20.252Z,28.3
2018-03-14T03:44:09.918Z,30.3
2018-03-14T03:44:59.925Z,32.9
2018-03-14T03:45:50.113Z,35
2018-03-14T03:46:39.590Z,33.6
2018-03-14T03:47:30.060Z,32.9
2018-03-14T03:48:19.643Z,32.6
2018-03-14T03:49:10.149Z,32.5
2018-03-14T03:50:01.434Z,32.6
2018-03-14T03:50:51.740Z,32.6
2018-03-14T03:51:41.951Z,32.7
2018-03-14T03:52:30.714Z,32.7
2018-03-14T03:53:19.220Z,32.7
2018-03-14T03:54:10.543Z,32.6
2018-03-14T03:55:01.869Z,32.5
2018-03-14T03:55:50.859Z,32.4
2018-03-14T03:56:41.842Z,32.3
2018-03-14T03:57:30.570Z,32.1
2018-03-14T03:58:21.571Z,32
2018-03-14T03:59:11.449Z,31.9
2018-03-14T04:00:01.289Z,31.7
2018-03-14T04:00:52.189Z,31.6
2018-03-14T04:01:40.213Z,31.4
2018-03-14T04:02:31.615Z,31.3
2018-03-14T04:03:22.044Z,31.1
2018-03-14T04:04:12.322Z,30.9
2018-03-14T04:05:01.935Z,28.8
2018-03-14T04:05:52.225Z,27.7
2018-03-14T04:06:41.748Z,27.3
2018-03-14T04:07:32.567Z,27.4
2018-03-14T04:08:22.060Z,28.3
2018-03-14T04:09:12.082Z,30.3
2018-03-14T04:10:02.362Z,33.1
2018-03-14T04:10:51.940Z,35.4
2018-03-14T04:11:42.539Z,34.5
2018-03-14T04:12:31.329Z,33.6
2018-03-14T04:13:22.235Z,33.3
2018-03-14T04:14:12.760Z,33.1
2018-03-14T04:15:01.912Z,33.1
2018-03-14T04:15:52.885Z,33.2
2018-03-14T04:16:43.064Z,33.2
2018-03-14T04:17:32.142Z,33.3
2018-03-14T04:18:24.160Z,33.2
2018-03-14T04:19:14.209Z,33.1
2018-03-14T04:20:04.787Z,33.1
2018-03-14T04:20:54.268Z,32.9
2018-03-14T04:21:44.388Z,32.8
2018-03-14T04:22:34.661Z,32.6
2018-03-14T04:23:25.261Z,32.4
2018-03-14T04:24:15.323Z,32.3
2018-03-14T04:25:04.599Z,32.1
2018-03-14T04:25:54.854Z,31.9
2018-03-14T04:26:44.628Z,31.8
2018-03-14T04:27:35.296Z,31.6
2018-03-14T04:28:25.573Z,31.5
2018-03-14T04:29:15.113Z,31.3
2018-03-14T04:30:04.907Z,30.4
2018-03-14T04:30:54.654Z,28.3
2018-03-14T04:31:44.665Z,27.5
2018-03-14T04:32:34.631Z,27.4
2018-03-14T04:33:25.430Z,27.9
2018-03-14T04:34:15.461Z,29.2
2018-03-14T04:35:05.835Z,31.6
2018-03-14T04:35:55.068Z,34.4
2018-03-14T04:36:45.980Z,34.4
2018-03-14T04:37:35.513Z,33.1
2018-03-14T04:38:25.026Z,32.6
2018-03-14T04:39:15.857Z,32.4
2018-03-14T04:40:04.796Z,32.4
2018-03-14T04:40:55.440Z,32.5
2018-03-14T04:41:45.785Z,32.6
2018-03-14T04:42:36.340Z,32.6
2018-03-14T04:43:26.410Z,32.6
2018-03-14T04:44:15.619Z,32.6
2018-03-14T04:45:06.245Z,32.6
2018-03-14T04:45:56.335Z,32.4
2018-03-14T04:46:46.660Z,32.3
2018-03-14T04:47:37.023Z,32.3
2018-03-14T04:48:26.452Z,32.1
2018-03-14T04:49:15.339Z,31.9
2018-03-14T04:50:04.908Z,31.8
2018-03-14T04:50:54.098Z,31.7
2018-03-14T04:51:45.609Z,31.5
2018-03-14T04:52:35.887Z,31.3
2018-03-14T04:53:24.287Z,31.2
2018-03-14T04:54:15.727Z,31.1
2018-03-14T04:55:05.795Z,29.5
2018-03-14T04:56:44.962Z,27.3
2018-03-14T04:57:35.002Z,27.3
2018-03-14T04:58:26.099Z,27.9
2018-03-14T04:59:15.351Z,29.5
2018-03-14T05:00:06.240Z,31.9
2018-03-14T05:00:55.944Z,34.7
2018-03-14T05:01:45.654Z,34.6
2018-03-14T05:02:35.320Z,33.4
2018-03-14T05:03:25.297Z,33
2018-03-14T05:04:16.149Z,32.9
2018-03-14T05:05:06.638Z,32.9
2018-03-14T05:05:56.135Z,32.9
2018-03-14T05:06:45.602Z,32.9
2018-03-14T05:07:35.406Z,33
2018-03-14T05:08:26.166Z,32.9
2018-03-14T05:09:16.250Z,32.9
2018-03-14T05:10:06.278Z,32.8
2018-03-14T05:10:57.153Z,32.8
2018-03-14T05:11:46.449Z,32.6
2018-03-14T05:12:36.950Z,32.4
2018-03-14T05:13:26.536Z,32.3
2018-03-14T05:14:16.958Z,32.2
2018-03-14T05:15:21.504Z,32
2018-03-14T05:15:57.016Z,31.8
2018-03-14T05:16:47.085Z,31.7
2018-03-14T05:17:37.020Z,31.6
2018-03-14T05:18:26.164Z,31.4
2018-03-14T05:19:17.793Z,31.3
2018-03-14T05:20:05.942Z,30.7
2018-03-14T05:20:56.215Z,28.3
2018-03-14T05:21:47.632Z,27.6
2018-03-14T05:22:36.273Z,27.3
2018-03-14T05:23:27.156Z,27.6
2018-03-14T05:24:16.627Z,28.8
2018-03-14T05:25:06.539Z,31
2018-03-14T05:25:57.902Z,33.8
2018-03-14T05:26:47.557Z,34.6
2018-03-14T05:27:36.568Z,33.2
2018-03-14T05:28:26.923Z,32.6
2018-03-14T05:29:17.677Z,32.4
2018-03-14T05:30:08.764Z,32.4
2018-03-14T05:30:58.128Z,32.6
2018-03-14T05:31:47.649Z,32.6
2018-03-14T05:32:37.123Z,32.7
2018-03-14T05:33:27.526Z,32.7
2018-03-14T05:34:16.839Z,32.7
2018-03-14T05:35:07.394Z,32.6
2018-03-14T05:35:57.343Z,32.6
2018-03-14T05:36:47.932Z,32.4
2018-03-14T05:37:38.746Z,32.3
2018-03-14T05:38:27.938Z,32.2
2018-03-14T05:39:18.196Z,32
2018-03-14T05:40:08.110Z,31.9
2018-03-14T05:40:58.944Z,31.8
2018-03-14T05:41:49.547Z,31.6
2018-03-14T05:42:38.184Z,31.4
2018-03-14T05:43:27.493Z,31.3
2018-03-14T05:44:18.462Z,31.1
2018-03-14T05:45:09.086Z,30.6
2018-03-14T05:45:58.990Z,28.2
2018-03-14T05:46:48.711Z,27.6
2018-03-14T05:47:38.424Z,27.3
2018-03-14T05:48:29.216Z,27.7
2018-03-14T05:49:18.691Z,28.8
2018-03-14T05:50:08.873Z,30.9
2018-03-14T05:50:59.111Z,33.8
2018-03-14T05:51:50.060Z,34.9
2018-03-14T05:52:38.029Z,33.6
2018-03-14T05:53:29.455Z,32.9
2018-03-14T05:54:19.940Z,32.8
2018-03-14T05:55:08.907Z,32.7
2018-03-14T05:55:59.324Z,32.8
2018-03-14T05:56:49.609Z,32.8
2018-03-14T05:57:40.247Z,32.9
2018-03-14T05:58:30.980Z,32.8
2018-03-14T05:59:20.191Z,32.8
2018-03-14T06:00:10.697Z,32.8
2018-03-14T06:00:59.230Z,32.7
2018-03-14T06:01:49.869Z,32.6
2018-03-14T06:02:40.917Z,32.4
2018-03-14T06:03:30.195Z,32.3
2018-03-14T06:04:20.892Z,32.1
2018-03-14T06:05:09.974Z,32
2018-03-14T06:05:59.511Z,31.8
2018-03-14T06:06:50.159Z,31.7
2018-03-14T06:07:40.944Z,31.5
2018-03-14T06:08:31.457Z,31.4
2018-03-14T06:09:19.659Z,31.2
2018-03-14T06:10:10.402Z,31
2018-03-14T06:10:59.519Z,28.7
2018-03-14T06:11:50.300Z,27.6
2018-03-14T06:12:40.959Z,27.3
2018-03-14T06:13:30.887Z,27.4
2018-03-14T06:14:20.929Z,28.4
2018-03-14T06:15:09.785Z,30.7
2018-03-14T06:15:59.300Z,33.4
2018-03-14T06:16:52.006Z,35.1
2018-03-14T06:17:42.193Z,33.6
2018-03-14T06:18:31.131Z,32.9
2018-03-14T06:19:21.194Z,32.8
2018-03-14T06:20:11.576Z,32.7
2018-03-14T06:21:01.111Z,32.8
2018-03-14T06:21:51.319Z,32.8
2018-03-14T06:22:40.454Z,32.9
2018-03-14T06:23:31.298Z,32.9
2018-03-14T06:24:21.546Z,32.9
2018-03-14T06:25:11.363Z,32.8
2018-03-14T06:26:01.306Z,32.8
2018-03-14T06:26:52.653Z,32.6
2018-03-14T06:27:43.194Z,32.5
2018-03-14T06:28:31.893Z,32.3
2018-03-14T06:29:22.051Z,32.2
2018-03-14T06:30:11.582Z,32
2018-03-14T06:31:02.906Z,31.9
2018-03-14T06:31:52.038Z,31.7
2018-03-14T06:32:42.806Z,31.6
2018-03-14T06:33:31.677Z,31.4
2018-03-14T06:34:21.585Z,31.3
2018-03-14T06:35:11.867Z,31.1
2018-03-14T06:36:02.485Z,28.9
2018-03-14T06:36:52.248Z,27.7
2018-03-14T06:37:42.537Z,27.3
2018-03-14T06:38:32.473Z,27.6
2018-03-14T06:39:23.625Z,28.6
2018-03-14T06:40:12.236Z,30.8
2018-03-14T06:41:04.023Z,33.5
2018-03-14T06:41:52.913Z,34.9
2018-03-14T06:42:41.688Z,33.6
2018-03-14T06:43:32.957Z,32.9
2018-03-14T06:44:22.968Z,32.7
2018-03-14T06:45:13.289Z,32.7
2018-03-14T06:46:02.995Z,32.7
2018-03-14T06:46:53.038Z,32.8
2018-03-14T06:47:43.461Z,32.8
2018-03-14T06:48:33.575Z,32.8
2018-03-14T06:49:23.457Z,32.8
2018-03-14T06:50:13.249Z,32.8
2018-03-14T06:51:03.366Z,32.7
2018-03-14T06:51:52.359Z,32.6
2018-03-14T06:52:41.562Z,32.4
2018-03-14T06:53:34.895Z,32.3
2018-03-14T06:54:24.034Z,32.1
2018-03-14T06:55:14.229Z,32
2018-03-14T06:56:03.708Z,31.8
2018-03-14T06:56:55.062Z,31.6
2018-03-14T06:57:44.441Z,31.5
2018-03-14T06:58:33.849Z,31.4
2018-03-14T06:59:23.228Z,31.2
2018-03-14T07:00:14.616Z,30.8
2018-03-14T07:01:04.711Z,28.3
2018-03-14T07:01:54.334Z,27.6
2018-03-14T07:02:43.824Z,27.3
2018-03-14T07:04:24.557Z,29.2
2018-03-14T07:05:16.089Z,31.6
2018-03-14T07:06:06.669Z,34.5
2018-03-14T07:06:56.076Z,34.4
2018-03-14T07:07:46.771Z,33.3
2018-03-14T07:08:36.491Z,32.8
2018-03-14T07:09:26.273Z,32.7
2018-03-14T07:10:16.591Z,32.7
2018-03-14T07:11:06.685Z,32.7
2018-03-14T07:11:56.887Z,32.8
2018-03-14T07:12:46.533Z,32.8
2018-03-14T07:13:36.906Z,32.8
2018-03-14T07:14:26.918Z,32.8
2018-03-14T07:15:16.422Z,32.7
2018-03-14T07:16:07.013Z,32.6
2018-03-14T07:16:57.379Z,32.5
2018-03-14T07:17:46.602Z,32.4
2018-03-14T07:18:37.238Z,32.2
2018-03-14T07:19:27.096Z,32.1
2018-03-14T07:20:17.363Z,31.9
2018-03-14T07:21:06.958Z,31.8
2018-03-14T07:21:58.030Z,31.6
2018-03-14T07:22:47.787Z,31.4
2018-03-14T07:23:35.599Z,31.3
2018-03-14T07:24:27.392Z,31.1
2018-03-14T07:25:16.892Z,31
2018-03-14T07:26:08.348Z,30.8
2018-03-14T07:26:58.097Z,30.7
2018-03-14T07:27:47.658Z,29.1
2018-03-14T07:28:38.493Z,27.6
2018-03-14T07:29:27.976Z,27.1
2018-03-14T07:30:17.288Z,27.2
2018-03-14T07:31:08.357Z,27.9
2018-03-14T07:31:58.182Z,29.6
2018-03-14T07:32:48.776Z,32.4
2018-03-14T07:33:38.260Z,35.2
2018-03-14T07:34:28.660Z,34.8
2018-03-14T07:35:17.644Z,33.9
2018-03-14T07:36:08.711Z,33.4
2018-03-14T07:36:59.162Z,33.4
2018-03-14T07:37:48.286Z,33.4
2018-03-14T07:38:39.208Z,33.4
2018-03-14T07:39:27.482Z,33.4
2018-03-14T07:40:17.792Z,33.4
2018-03-14T07:41:06.377Z,33.3
2018-03-14T07:41:57.111Z,33.3
2018-03-14T07:42:47.681Z,33.1
2018-03-14T07:43:36.849Z,33
2018-03-14T07:44:28.261Z,32.9
2018-03-14T07:45:15.552Z,32.8
2018-03-14T07:46:08.164Z,32.6
2018-03-14T07:46:57.191Z,32.4
2018-03-14T07:47:47.457Z,32.2
2018-03-14T07:48:37.259Z,32
2018-03-14T07:49:27.309Z,31.8
2018-03-14T07:50:17.296Z,31.6
2018-03-14T07:51:08.041Z,31.5
2018-03-14T07:51:57.928Z,31.3
2018-03-14T07:52:48.018Z,31.2
2018-03-14T07:53:38.193Z,31
2018-03-14T07:54:28.185Z,30.8
2018-03-14T07:55:18.657Z,28.8
2018-03-14T07:56:07.324Z,27.6
2018-03-14T07:56:58.098Z,27.3
2018-03-14T07:57:47.251Z,27.6
2018-03-14T07:58:37.508Z,28.5
2018-03-14T07:59:29.095Z,30.7
2018-03-14T08:00:20.008Z,33.8
2018-03-14T08:01:08.709Z,35.3
2018-03-14T08:01:58.400Z,33.9
2018-03-14T08:02:48.682Z,33.3
2018-03-14T08:03:38.843Z,33
2018-03-14T08:04:29.155Z,32.9
2018-03-14T08:05:18.983Z,32.9
2018-03-14T08:06:08.797Z,32.9
2018-03-14T08:06:58.976Z,32.9
2018-03-14T08:07:48.476Z,32.9
2018-03-14T08:08:38.348Z,32.9
2018-03-14T08:09:28.583Z,32.8
2018-03-14T08:10:18.545Z,32.8
2018-03-14T08:11:08.623Z,32.6
2018-03-14T08:11:59.355Z,32.4
2018-03-14T08:12:49.574Z,32.3
2018-03-14T08:13:44.043Z,32.1
2018-03-14T08:14:30.905Z,31.9
2018-03-14T08:15:21.537Z,31.8
2018-03-14T08:16:11.863Z,31.6
2018-03-14T08:17:01.750Z,31.4
2018-03-14T08:17:51.723Z,31.3
2018-03-14T08:18:41.201Z,31.1
2018-03-14T08:19:31.573Z,30.9
2018-03-14T08:20:22.286Z,30.8
2018-03-14T08:21:12.233Z,30.6
2018-03-14T08:22:01.978Z,28.8
2018-03-14T08:22:51.466Z,27.4
2018-03-14T08:23:42.114Z,27.1
2018-03-14T08:24:31.406Z,27.3
2018-03-14T08:25:22.065Z,28.2
2018-03-14T08:26:12.170Z,30.1
2018-03-14T08:27:02.365Z,32.9
2018-03-14T08:27:52.784Z,35.3
2018-03-14T08:28:42.235Z,34.2
2018-03-14T08:29:32.582Z,33.4
2018-03-14T08:30:20.714Z,33
2018-03-14T08:31:12.922Z,32.9
2018-03-14T08:32:01.969Z,33
2018-03-14T08:32:52.509Z,33.1
2018-03-14T08:33:43.145Z,33.1
2018-03-14T08:34:31.799Z,33.1
2018-03-14T08:35:21.208Z,33.1
2018-03-14T08:36:13.301Z,32.9
2018-03-14T08:37:02.864Z,32.8
2018-03-14T08:37:53.136Z,32.8
2018-03-14T08:38:42.381Z,32.6
2018-03-14T08:39:32.513Z,32.4
2018-03-14T08:40:23.042Z,32.3
2018-03-14T08:41:12.261Z,32.1
2018-03-14T08:42:02.886Z,31.9
2018-03-14T08:42:52.931Z,31.8
2018-03-14T08:43:43.109Z,31.6
2018-03-14T08:44:33.943Z,31.4
2018-03-14T08:45:22.570Z,31.2
2018-03-14T08:46:14.044Z,31.1
2018-03-14T08:47:03.708Z,30.9
2018-03-14T08:47:53.028Z,30.7
2018-03-14T08:48:42.688Z,30.1
2018-03-14T08:49:34.049Z,27.6
2018-03-14T08:50:24.249Z,27.1
2018-03-14T08:51:13.418Z,27.1
2018-03-14T08:52:03.363Z,27.5
2018-03-14T08:52:54.221Z,29
2018-03-14T08:53:43.682Z,31.8
2018-03-14T08:54:34.453Z,34.6
2018-03-14T08:55:24.386Z,34.6
2018-03-14T08:56:13.908Z,33.6
2018-03-14T08:57:03.440Z,33.1
2018-03-14T08:57:53.785Z,32.9
2018-03-14T08:58:43.767Z,32.9
2018-03-14T08:59:34.225Z,32.9
2018-03-14T09:00:24.349Z,32.9
2018-03-14T09:01:13.817Z,32.9
2018-03-14T09:02:03.570Z,32.9
2018-03-14T09:02:54.147Z,32.9
2018-03-14T09:03:43.618Z,32.8
2018-03-14T09:04:33.402Z,32.7
2018-03-14T09:05:24.630Z,32.6
2018-03-14T09:06:14.925Z,32.4
2018-03-14T09:07:05.241Z,32.3
2018-03-14T09:07:54.752Z,32.1
2018-03-14T09:08:44.872Z,31.9
2018-03-14T09:09:35.193Z,31.8
2018-03-14T09:10:24.120Z,31.6
2018-03-14T09:11:15.110Z,31.4
2018-03-14T09:12:05.370Z,31.3
2018-03-14T09:12:55.125Z,31.1
2018-03-14T09:13:44.232Z,30.9
2018-03-14T09:14:33.670Z,30.8
2018-03-14T09:15:24.339Z,29.3
2018-03-14T09:16:12.697Z,27.6
2018-03-14T09:17:04.144Z,27.1
2018-03-14T09:17:53.604Z,27.3
2018-03-14T09:18:44.556Z,28.2
2018-03-14T09:19:33.536Z,30.4
2018-03-14T09:20:24.766Z,33.3
2018-03-14T09:21:15.534Z,35.5
2018-03-14T09:22:04.472Z,34.6
2018-03-14T09:22:53.866Z,33.9
2018-03-14T09:23:44.017Z,33.6
2018-03-14T09:24:34.939Z,33.5
2018-03-14T09:25:23.569Z,33.5
2018-03-14T09:26:14.387Z,33.5
2018-03-14T09:27:05.354Z,33.5
2018-03-14T09:27:55.194Z,33.5
2018-03-14T09:28:45.952Z,33.4
2018-03-14T09:29:35.970Z,33.4
2018-03-14T09:30:24.634Z,33.3
2018-03-14T09:31:13.964Z,33.1
2018-03-14T09:32:03.746Z,32.9
2018-03-14T09:32:53.866Z,32.8
2018-03-14T09:33:44.626Z,32.6
2018-03-14T09:34:36.528Z,32.4
2018-03-14T09:35:24.485Z,32.3
2018-03-14T09:36:15.239Z,32.1
2018-03-14T09:37:05.906Z,31.9
2018-03-14T09:37:56.513Z,31.7
2018-03-14T09:38:44.720Z,31.6
2018-03-14T09:39:34.757Z,31.4
2018-03-14T09:40:26.241Z,31.2
2018-03-14T09:41:16.388Z,31.1
2018-03-14T09:42:05.859Z,29.7
2018-03-14T09:42:56.299Z,27.9
2018-03-14T09:43:46.026Z,27.3
2018-03-14T09:44:36.180Z,27.3
2018-03-14T09:45:26.420Z,28.1
2018-03-14T09:46:16.660Z,30.1
2018-03-14T09:47:05.985Z,32.9
2018-03-14T09:47:57.328Z,35.3
2018-03-14T09:48:46.919Z,34.1
2018-03-14T09:49:36.653Z,33.3
2018-03-14T09:50:25.496Z,33.1
2018-03-14T09:51:16.390Z,32.9
2018-03-14T09:52:06.893Z,33
2018-03-14T09:52:56.025Z,33.1
2018-03-14T09:53:47.165Z,33.1
2018-03-14T09:54:35.832Z,33.1
2018-03-14T09:55:26.343Z,33.1
2018-03-14T09:56:17.627Z,33
2018-03-14T09:57:07.942Z,32.9
2018-03-14T09:57:56.197Z,32.8
2018-03-14T09:58:47.084Z,32.7
2018-03-14T09:59:36.812Z,32.5
2018-03-14T10:00:26.944Z,32.4
2018-03-14T10:01:17.630Z,32.2
2018-03-14T10:02:06.667Z,32.1
2018-03-14T10:02:56.847Z,31.9
2018-03-14T10:03:47.082Z,31.7
2018-03-14T10:04:37.062Z,31.6
2018-03-14T10:05:26.907Z,31.4
2018-03-14T10:06:19.357Z,31.2
2018-03-14T10:07:07.492Z,31.1
2018-03-14T10:07:58.241Z,30.9
2018-03-14T10:08:47.246Z,29.2
2018-03-14T10:09:37.691Z,27.8
2018-03-14T10:10:28.377Z,27.4
2018-03-14T10:11:18.017Z,27.8
2018-03-14T10:12:07.413Z,28.9
2018-03-14T10:12:57.763Z,31.4
2018-03-14T10:13:48.780Z,34.4
2018-03-14T10:14:38.764Z,35.2
2018-03-14T10:15:27.878Z,34.1
2018-03-14T10:16:17.687Z,33.6
2018-03-14T10:17:08.775Z,33.4
2018-03-14T10:17:58.433Z,33.4
2018-03-14T10:18:48.374Z,33.4
2018-03-14T10:19:38.531Z,33.4
2018-03-14T10:20:28.553Z,33.4
2018-03-14T10:21:18.564Z,33.4
2018-03-14T10:22:07.936Z,33.3
2018-03-14T10:22:58.502Z,33.3
2018-03-14T10:23:49.055Z,33.1
2018-03-14T10:24:38.996Z,32.9
2018-03-14T10:25:28.720Z,32.8
2018-03-14T10:26:19.022Z,32.6
2018-03-14T10:27:07.815Z,32.5
2018-03-14T10:27:59.215Z,32.3
2018-03-14T10:28:50.087Z,32.1
2018-03-14T10:29:39.833Z,31.9
2018-03-14T10:30:28.705Z,31.8
2018-03-14T10:31:20.104Z,31.6
2018-03-14T10:32:10.144Z,31.4
2018-03-14T10:33:00.190Z,31.3
2018-03-14T10:33:48.887Z,31.1
2018-03-14T10:34:39.038Z,30.8
2018-03-14T10:35:29.122Z,28.3
2018-03-14T10:36:19.375Z,27.6
2018-03-14T10:37:10.487Z,27.6
2018-03-14T10:37:59.875Z,28.4
2018-03-14T10:38:50.826Z,30.3
2018-03-14T10:39:39.590Z,33.3
2018-03-14T10:40:28.939Z,35.8
2018-03-14T10:41:21.462Z,35.3
2018-03-14T10:42:10.477Z,34.4
2018-03-14T10:42:59.917Z,34.1
2018-03-14T10:43:49.400Z,33.9
2018-03-14T10:44:40.971Z,33.9
2018-03-14T10:45:31.122Z,33.9
2018-03-14T10:46:20.050Z,33.8
2018-03-14T10:47:10.164Z,33.8
2018-03-14T10:48:00.859Z,33.8
2018-03-14T10:48:49.483Z,33.6
2018-03-14T10:49:40.029Z,33.5
2018-03-14T10:50:30.071Z,33.4
2018-03-14T10:51:20.272Z,33.2
2018-03-14T10:52:11.302Z,33
2018-03-14T10:53:02.209Z,32.8
2018-03-14T10:53:50.118Z,32.7
2018-03-14T10:54:42.650Z,32.5
2018-03-14T10:55:30.533Z,32.3
2018-03-14T10:56:21.679Z,32.1
2018-03-14T10:57:10.508Z,31.9
2018-03-14T10:58:01.126Z,31.8
2018-03-14T10:58:52.380Z,31.6
2018-03-14T10:59:42.223Z,31.4
2018-03-14T11:00:32.218Z,31.2
2018-03-14T11:01:21.758Z,31.1
2018-03-14T11:02:11.225Z,29.6
2018-03-14T11:03:01.263Z,28
2018-03-14T11:03:51.630Z,27.6
2018-03-14T11:04:42.433Z,28.2
2018-03-14T11:05:32.192Z,29.9
2018-03-14T11:06:21.353Z,32.8
2018-03-14T11:07:11.412Z,35.4
2018-03-14T11:08:02.079Z,35.1
2018-03-14T11:08:51.795Z,34.3
2018-03-14T11:09:41.192Z,33.8